createdAt,value
2023-05-23T00:00:51.343Z,120
2023-05-23T00:01:58.293Z,119
2023-05-23T00:03:05.293Z,118
2023-05-23T00:04:12.123Z,115
2023-05-23T00:05:18.967Z,124
2023-05-23T00:06:25.757Z,121
2023-05-23T00:07:32.646Z,124
2023-05-23T00:08:39.548Z,123
2023-05-23T00:09:46.418Z,119
2023-05-23T00:10:53.126Z,117
2023-05-23T00:11:59.916Z,121
2023-05-23T00:13:06.849Z,121
2023-05-23T00:14:13.615Z,121
2023-05-23T00:15:20.340Z,119
2023-05-23T00:19:09.811Z,117
2023-05-23T00:20:16.572Z,120
2023-05-23T00:21:23.327Z,118
2023-05-23T00:22:35.144Z,119
2023-05-23T00:23:42.001Z,117
2023-05-23T00:24:48.893Z,119
2023-05-23T00:25:55.768Z,122
2023-05-23T00:27:02.610Z,116
2023-05-23T00:28:09.368Z,117
2023-05-23T00:29:16.150Z,118
2023-05-23T00:30:22.955Z,121
2023-05-23T00:31:29.968Z,117
2023-05-23T00:32:36.990Z,117
2023-05-23T00:33:43.739Z,119
2023-05-23T00:34:50.614Z,118
2023-05-23T00:35:57.420Z,118
2023-05-23T00:37:04.403Z,120
2023-05-23T00:38:11.176Z,115
2023-05-23T00:39:18.064Z,115
2023-05-23T00:40:40.123Z,122
2023-05-23T00:41:47.710Z,119
2023-05-23T00:42:53.738Z,116
2023-05-23T00:44:01.480Z,122
2023-05-23T00:45:08.336Z,112
2023-05-23T00:46:15.239Z,119
2023-05-23T00:47:22.009Z,118
2023-05-23T00:48:28.970Z,118
2023-05-23T00:49:35.750Z,118
2023-05-23T00:50:42.588Z,123
2023-05-23T00:51:49.464Z,124
2023-05-23T00:52:56.269Z,122
2023-05-23T00:54:03.058Z,120
2023-05-23T00:55:32.761Z,119
2023-05-23T00:56:39.785Z,119
2023-05-23T00:57:46.582Z,118
2023-05-23T00:58:53.369Z,115
2023-05-23T01:00:00.222Z,122
2023-05-23T01:01:07.154Z,125
2023-05-23T01:02:13.993Z,124
2023-05-23T01:03:21.086Z,120
2023-05-23T01:04:27.668Z,122
2023-05-23T01:05:34.442Z,117
2023-05-23T01:06:41.289Z,118
2023-05-23T01:07:48.116Z,122
2023-05-23T01:08:54.933Z,110
2023-05-23T01:10:01.738Z,116
2023-05-23T01:11:48.505Z,118
2023-05-23T01:13:03.177Z,117
2023-05-23T01:14:18.337Z,119
2023-05-23T01:15:27.857Z,118
2023-05-23T01:16:45.004Z,120
2023-05-23T01:17:56.921Z,125
2023-05-23T01:20:02.216Z,125
2023-05-23T01:21:14.086Z,113
2023-05-23T01:22:20.877Z,118
2023-05-23T01:23:38.019Z,112
2023-05-23T01:24:49.934Z,116
2023-05-23T01:26:01.893Z,121
2023-05-23T01:27:19.291Z,120
2023-05-23T01:28:31.303Z,123
2023-05-23T01:29:41.222Z,122
2023-05-23T01:30:48.196Z,113
2023-05-23T01:31:55.089Z,121
2023-05-23T01:33:01.876Z,117
2023-05-23T01:34:08.641Z,119
2023-05-23T01:35:18.492Z,117
2023-05-23T01:36:25.453Z,112
2023-05-23T01:37:32.302Z,115
2023-05-23T01:38:39.116Z,116
2023-05-23T01:39:45.961Z,116
2023-05-23T01:40:52.963Z,117
2023-05-23T01:41:59.730Z,118
2023-05-23T01:43:06.620Z,119
2023-05-23T01:44:13.290Z,120
2023-05-23T01:45:20.120Z,119
2023-05-23T01:46:27.173Z,115
2023-05-23T01:47:33.985Z,118
2023-05-23T01:48:40.796Z,117
2023-05-23T01:49:54.786Z,113
2023-05-23T01:51:01.634Z,116
2023-05-23T01:52:08.414Z,110
2023-05-23T01:53:15.274Z,116
2023-05-23T01:54:22.072Z,116
2023-05-23T01:55:28.848Z,118
2023-05-23T01:56:35.624Z,118
2023-05-23T01:57:42.374Z,123
2023-05-23T01:58:49.383Z,122
2023-05-23T01:59:56.104Z,119
2023-05-23T02:01:02.926Z,119
2023-05-23T02:02:09.665Z,123
2023-05-23T02:03:16.728Z,120
2023-05-23T02:04:23.335Z,123
2023-05-23T02:05:30.178Z,118
2023-05-23T02:06:37.025Z,120
2023-05-23T02:07:43.840Z,125
2023-05-23T02:08:50.682Z,119
2023-05-23T02:09:57.605Z,116
2023-05-23T02:11:04.436Z,120
2023-05-23T02:12:11.242Z,113
2023-05-23T02:13:18.026Z,118
2023-05-23T02:14:25.091Z,121
2023-05-23T02:15:31.768Z,117
2023-05-23T02:16:38.610Z,113
2023-05-23T02:17:45.403Z,113
2023-05-23T02:18:52.206Z,112
2023-05-23T02:19:58.974Z,114
2023-05-23T02:21:05.904Z,117
2023-05-23T02:22:12.698Z,112
2023-05-23T02:23:19.538Z,117
2023-05-23T02:24:26.350Z,111
2023-05-23T02:25:33.191Z,117
2023-05-23T02:26:39.968Z,120
2023-05-23T02:27:46.729Z,119
2023-05-23T02:28:53.525Z,120
2023-05-23T02:30:00.464Z,117
2023-05-23T02:31:07.235Z,115
2023-05-23T02:32:13.996Z,113
2023-05-23T02:33:22.027Z,113
2023-05-23T02:34:28.868Z,118
2023-05-23T02:35:35.748Z,117
2023-05-23T02:36:42.788Z,116
2023-05-23T02:37:49.609Z,117
2023-05-23T02:38:56.398Z,127
2023-05-23T02:40:03.185Z,121
2023-05-23T02:41:10.409Z,108
2023-05-23T02:42:17.401Z,111
2023-05-23T02:43:24.231Z,111
2023-05-23T02:44:31.072Z,112
2023-05-23T02:45:37.991Z,117
2023-05-23T02:46:44.716Z,114
2023-05-23T02:47:51.577Z,120
2023-05-23T02:48:58.332Z,116
2023-05-23T02:50:05.063Z,115
2023-05-23T02:51:11.951Z,115
2023-05-23T02:52:18.949Z,113
2023-05-23T02:53:25.757Z,123
2023-05-23T02:54:32.927Z,115
2023-05-23T02:57:00.354Z,115
2023-05-23T02:58:07.336Z,122
2023-05-23T02:59:14.137Z,116
2023-05-23T03:00:20.943Z,116
2023-05-23T03:01:27.923Z,115
2023-05-23T03:02:34.688Z,114
2023-05-23T03:03:41.612Z,110
2023-05-23T03:04:48.455Z,114
2023-05-23T03:05:55.341Z,109
2023-05-23T03:07:02.450Z,112
2023-05-23T03:08:09.440Z,119
2023-05-23T03:10:46.519Z,119
2023-05-23T03:11:53.533Z,120
2023-05-23T03:13:00.625Z,112
2023-05-23T03:14:07.970Z,108
2023-05-23T03:15:14.940Z,116
2023-05-23T03:16:22.040Z,109
2023-05-23T03:17:29.238Z,117
2023-05-23T03:18:36.151Z,114
2023-05-23T03:19:43.150Z,109
2023-05-23T03:20:50.076Z,119
2023-05-23T03:23:40.722Z,119
2023-05-23T03:24:47.723Z,118
2023-05-23T03:25:54.964Z,116
2023-05-23T03:27:01.997Z,114
2023-05-23T03:28:09.337Z,111
2023-05-23T03:29:16.497Z,114
2023-05-23T03:30:23.454Z,114
2023-05-23T03:31:30.499Z,110
2023-05-23T03:32:37.786Z,108
2023-05-23T03:33:44.492Z,115
2023-05-23T03:34:51.575Z,107
2023-05-23T03:35:58.555Z,113
2023-05-23T03:37:05.494Z,116
2023-05-23T03:38:12.496Z,115
2023-05-23T03:39:19.571Z,113
2023-05-23T03:40:26.847Z,113
2023-05-23T03:41:33.857Z,115
2023-05-23T03:42:40.841Z,113
2023-05-23T03:43:47.800Z,109
2023-05-23T03:44:54.865Z,114
2023-05-23T03:46:01.968Z,110
2023-05-23T03:47:08.910Z,113
2023-05-23T03:48:15.923Z,115
2023-05-23T03:49:22.953Z,116
2023-05-23T03:50:29.969Z,109
2023-05-23T03:51:37.083Z,116
2023-05-23T03:52:44.337Z,118
2023-05-23T03:53:51.426Z,117
2023-05-23T03:54:58.530Z,116
2023-05-23T03:56:06.697Z,118
2023-05-23T03:57:14.945Z,121
2023-05-23T03:58:22.403Z,119
2023-05-23T03:59:29.537Z,120
2023-05-23T04:00:36.678Z,117
2023-05-23T04:01:43.791Z,123
2023-05-23T04:02:50.941Z,114
2023-05-23T04:03:58.884Z,116
2023-05-23T04:05:05.978Z,116
2023-05-23T04:06:14.358Z,117
2023-05-23T04:07:20.211Z,113
2023-05-23T04:08:27.390Z,115
2023-05-23T04:10:37.378Z,115
2023-05-23T04:11:44.430Z,119
2023-05-23T04:12:51.455Z,118
2023-05-23T04:13:58.518Z,120
2023-05-23T04:15:05.537Z,118
2023-05-23T04:16:25.641Z,125
2023-05-23T04:17:33.794Z,117
2023-05-23T04:18:40.823Z,124
2023-05-23T04:19:47.960Z,116
2023-05-23T04:20:54.859Z,115
2023-05-23T04:22:03.805Z,117
2023-05-23T04:23:10.599Z,114
2023-05-23T04:24:17.460Z,116
2023-05-23T04:25:24.357Z,118
2023-05-23T04:26:31.294Z,114
2023-05-23T04:27:40.077Z,114
2023-05-23T04:28:44.925Z,110
2023-05-23T04:29:51.888Z,115
2023-05-23T04:30:58.873Z,113
2023-05-23T04:32:05.538Z,117
2023-05-23T04:34:09.092Z,117
2023-05-23T04:35:15.992Z,118
2023-05-23T04:36:22.679Z,121
2023-05-23T04:37:30.591Z,124
2023-05-23T04:39:00.294Z,116
2023-05-23T04:40:07.290Z,120
2023-05-23T04:41:14.498Z,112
2023-05-23T04:42:21.239Z,123
2023-05-23T04:43:28.062Z,119
2023-05-23T04:44:34.776Z,122
2023-05-23T04:45:42.021Z,122
2023-05-23T04:46:48.741Z,121
2023-05-23T04:47:55.605Z,121
2023-05-23T04:49:02.386Z,120
2023-05-23T04:50:09.200Z,124
2023-05-23T04:51:16.116Z,123
2023-05-23T04:52:22.838Z,116
2023-05-23T04:53:29.623Z,119
2023-05-23T04:54:36.537Z,122
2023-05-23T04:55:43.445Z,121
2023-05-23T04:56:50.219Z,110
2023-05-23T04:57:56.987Z,111
2023-05-23T04:59:03.892Z,116
2023-05-23T05:00:10.754Z,112
2023-05-23T05:01:17.800Z,121
2023-05-23T05:02:24.685Z,115
2023-05-23T05:03:31.527Z,123
2023-05-23T05:04:38.263Z,125
2023-05-23T05:05:45.107Z,116
2023-05-23T05:06:52.021Z,116
2023-05-23T05:08:06.458Z,115
2023-05-23T05:09:13.408Z,114
2023-05-23T05:10:20.202Z,118
2023-05-23T05:11:27.069Z,121
2023-05-23T05:12:33.914Z,113
2023-05-23T05:13:40.827Z,116
2023-05-23T05:14:47.757Z,118
2023-05-23T05:15:54.527Z,115
2023-05-23T05:17:01.323Z,120
2023-05-23T05:18:08.162Z,110
2023-05-23T05:19:15.105Z,116
2023-05-23T05:20:21.889Z,112
2023-05-23T05:22:38.790Z,112
2023-05-23T05:23:45.399Z,115
2023-05-23T05:24:52.166Z,118
2023-05-23T05:25:59.024Z,111
2023-05-23T05:27:47.864Z,111
2023-05-23T05:28:54.837Z,110
2023-05-23T05:30:01.681Z,115
2023-05-23T05:31:08.755Z,118
2023-05-23T05:32:15.593Z,107
2023-05-23T05:33:22.489Z,110
2023-05-23T05:34:29.254Z,111
2023-05-23T05:35:36.052Z,109
2023-05-23T05:36:42.954Z,111
2023-05-23T05:37:49.929Z,107
2023-05-23T05:38:56.590Z,108
2023-05-23T05:40:03.356Z,113
2023-05-23T05:41:10.323Z,112
2023-05-23T05:42:17.245Z,106
2023-05-23T05:43:24.145Z,107
2023-05-23T05:44:33.893Z,106
2023-05-23T05:45:41.038Z,103
2023-05-23T05:46:47.940Z,100
2023-05-23T05:47:54.856Z,104
2023-05-23T05:49:01.621Z,100
2023-05-23T05:50:08.460Z,104
2023-05-23T05:51:15.284Z,100
2023-05-23T05:52:22.125Z,99
2023-05-23T05:53:29.244Z,102
2023-05-23T05:55:07.567Z,102
2023-05-23T05:56:17.102Z,94
2023-05-23T05:57:24.054Z,94
2023-05-23T05:58:31.230Z,96
2023-05-23T06:00:09.489Z,96
2023-05-23T06:01:41.584Z,96
2023-05-23T06:02:48.432Z,98
2023-05-23T06:04:05.293Z,98
2023-05-23T06:05:11.978Z,96
2023-05-23T06:07:30.724Z,96
2023-05-23T06:09:29.644Z,91
2023-05-23T06:10:36.279Z,87
2023-05-23T06:12:14.289Z,87
2023-05-23T06:13:36.104Z,76
2023-05-23T06:14:58.189Z,76
2023-05-23T06:16:03.330Z,76
2023-05-23T06:17:16.353Z,69
2023-05-23T06:18:22.047Z,69
2023-05-23T06:19:28.845Z,67
2023-05-23T06:20:35.604Z,63
2023-05-23T06:21:42.431Z,62
2023-05-23T06:25:51.856Z,52
2023-05-23T06:26:58.533Z,52
2023-05-23T06:28:05.391Z,44
2023-05-23T06:29:12.161Z,49
2023-05-23T06:30:18.971Z,50
2023-05-23T06:31:26.007Z,34
2023-05-23T06:32:32.857Z,38
2023-05-23T06:33:39.635Z,39
2023-05-23T06:34:46.345Z,43
2023-05-23T06:35:53.070Z,36
2023-05-23T06:36:59.896Z,34
2023-05-23T06:38:06.853Z,25
2023-05-23T06:39:13.592Z,26
2023-05-23T06:40:20.383Z,25
2023-05-23T06:41:27.371Z,29
2023-05-23T06:42:34.097Z,39
2023-05-23T06:43:40.856Z,25
2023-05-23T06:44:47.590Z,35
2023-05-23T06:45:54.450Z,32
2023-05-23T06:47:01.314Z,27
2023-05-23T06:48:08.183Z,28
2023-05-23T06:49:15.508Z,30
2023-05-23T06:50:21.951Z,25
2023-05-23T06:51:28.798Z,30
2023-05-23T06:52:35.844Z,25
2023-05-23T06:54:00.688Z,27
2023-05-23T06:55:07.810Z,25
2023-05-23T06:56:14.711Z,27
2023-05-23T06:57:21.692Z,29
2023-05-23T06:58:28.366Z,25
2023-05-23T06:59:35.227Z,33
2023-05-23T07:00:42.397Z,39
2023-05-23T07:01:48.944Z,42
2023-05-23T07:02:55.740Z,29
2023-05-23T07:04:05.568Z,25
2023-05-23T07:05:12.434Z,31
2023-05-23T07:06:19.233Z,27
2023-05-23T07:07:26.228Z,36
2023-05-23T07:08:33.045Z,31
2023-05-23T07:09:39.872Z,29
2023-05-23T07:10:46.662Z,37
2023-05-23T07:11:53.593Z,25
2023-05-23T07:13:00.619Z,25
2023-05-23T07:14:07.320Z,39
2023-05-23T07:15:14.186Z,34
2023-05-23T07:16:21.094Z,29
2023-05-23T07:17:28.011Z,29
2023-05-23T07:18:36.854Z,32
2023-05-23T07:19:41.857Z,31
2023-05-23T07:20:48.697Z,35
2023-05-23T07:21:55.606Z,39
2023-05-23T07:23:02.513Z,33
2023-05-23T07:24:09.646Z,38
2023-05-23T07:25:16.454Z,27
2023-05-23T07:26:23.215Z,28
2023-05-23T07:27:30.107Z,25
2023-05-23T07:28:37.157Z,29
2023-05-23T07:29:43.815Z,34
2023-05-23T07:31:28.668Z,28
2023-05-23T07:32:35.447Z,26
2023-05-23T07:33:42.345Z,30
2023-05-23T07:34:49.144Z,44
2023-05-23T07:35:55.930Z,42
2023-05-23T07:37:02.789Z,30
2023-05-23T07:38:09.740Z,33
2023-05-23T07:39:16.521Z,25
2023-05-23T07:40:23.359Z,29
2023-05-23T07:41:30.193Z,47
2023-05-23T07:42:36.983Z,50
2023-05-23T07:43:43.831Z,64
2023-05-23T07:44:50.577Z,43
2023-05-23T07:45:57.344Z,47
2023-05-23T07:47:04.274Z,48
2023-05-23T07:48:11.170Z,58
2023-05-23T07:49:18.007Z,39
2023-05-23T07:50:24.812Z,41
2023-05-23T07:51:31.616Z,39
2023-05-23T07:52:38.441Z,37
2023-05-23T07:53:45.444Z,40
2023-05-23T07:54:52.288Z,28
2023-05-23T07:55:59.176Z,25
2023-05-23T07:57:05.978Z,62
2023-05-23T07:58:12.803Z,52
2023-05-23T07:59:19.679Z,48
2023-05-23T08:00:26.505Z,25
2023-05-23T08:01:33.366Z,27
2023-05-23T08:02:40.164Z,49
2023-05-23T08:03:47.208Z,43
2023-05-23T08:04:53.975Z,38
2023-05-23T08:06:00.760Z,25
2023-05-23T08:07:07.704Z,41
2023-05-23T08:08:14.610Z,40
2023-05-23T08:09:21.616Z,32
2023-05-23T08:10:43.630Z,32
2023-05-23T08:11:50.330Z,25
2023-05-23T08:12:57.231Z,47
2023-05-23T08:14:04.149Z,54
2023-05-23T08:15:12.214Z,61
2023-05-23T08:16:24.203Z,37
2023-05-23T08:17:31.179Z,40
2023-05-23T08:18:38.237Z,52
2023-05-23T08:19:45.060Z,51
2023-05-23T08:20:51.790Z,41
2023-05-23T08:21:58.604Z,33
2023-05-23T08:23:05.440Z,25
2023-05-23T08:24:14.077Z,44
2023-05-23T08:25:31.214Z,26
2023-05-23T08:26:37.980Z,43
2023-05-23T08:27:44.904Z,32
2023-05-23T08:28:51.849Z,38
2023-05-23T08:29:58.624Z,50
2023-05-23T08:31:05.516Z,36
2023-05-23T08:32:12.324Z,29
2023-05-23T08:33:19.208Z,38
2023-05-23T08:34:25.978Z,31
2023-05-23T08:35:32.745Z,25
2023-05-23T08:36:39.550Z,25
2023-05-23T08:37:46.367Z,38
2023-05-23T08:38:53.238Z,25
2023-05-23T08:40:00.072Z,25
2023-05-23T08:41:07.055Z,41
2023-05-23T08:42:13.945Z,35
2023-05-23T08:43:20.850Z,35
2023-05-23T08:44:27.746Z,39
2023-05-23T08:45:34.594Z,37
2023-05-23T08:46:41.402Z,49
2023-05-23T08:47:48.161Z,39
2023-05-23T08:48:55.013Z,58
2023-05-23T08:50:01.848Z,38
2023-05-23T08:51:08.713Z,37
2023-05-23T08:52:15.583Z,26
2023-05-23T08:53:22.499Z,41
2023-05-23T08:54:29.320Z,36
2023-05-23T08:55:36.058Z,42
2023-05-23T08:56:42.822Z,33
2023-05-23T08:57:50.185Z,50
2023-05-23T08:58:57.072Z,40
2023-05-23T09:00:19.079Z,40
2023-05-23T09:01:26.105Z,25
2023-05-23T09:02:32.876Z,35
2023-05-23T09:03:39.604Z,31
2023-05-23T09:04:46.461Z,42
2023-05-23T09:05:53.540Z,37
2023-05-23T09:07:00.405Z,36
2023-05-23T09:08:09.320Z,33
2023-05-23T09:09:16.111Z,36
2023-05-23T09:10:22.954Z,36
2023-05-23T09:11:29.882Z,35
2023-05-23T09:12:39.651Z,31
2023-05-23T09:13:46.448Z,34
2023-05-23T09:14:53.352Z,34
2023-05-23T09:16:00.346Z,30
2023-05-23T09:17:19.881Z,44
2023-05-23T09:18:26.860Z,37
2023-05-23T09:19:39.016Z,47
2023-05-23T09:20:45.786Z,39
2023-05-23T09:21:52.666Z,36
2023-05-23T09:23:01.034Z,41
2023-05-23T09:24:06.434Z,29
2023-05-23T09:25:13.367Z,30
2023-05-23T09:26:20.166Z,41
2023-05-23T09:27:26.962Z,40
2023-05-23T09:28:33.784Z,28
2023-05-23T09:29:40.621Z,28
2023-05-23T09:30:47.466Z,37
2023-05-23T09:31:54.518Z,45
2023-05-23T09:33:05.717Z,39
2023-05-23T09:34:10.760Z,43
2023-05-23T09:35:17.922Z,25
2023-05-23T09:36:24.785Z,39
2023-05-23T09:37:31.616Z,42
2023-05-23T09:38:38.418Z,41
2023-05-23T09:39:45.275Z,57
2023-05-23T09:40:52.102Z,69
2023-05-23T09:41:58.940Z,60
2023-05-23T09:43:05.849Z,45
2023-05-23T09:44:12.629Z,48
2023-05-23T09:46:24.387Z,48
2023-05-23T09:47:31.287Z,41
2023-05-23T09:48:38.141Z,49
2023-05-23T09:49:50.169Z,38
2023-05-23T09:50:56.825Z,54
2023-05-23T09:52:03.668Z,42
2023-05-23T09:53:10.482Z,37
2023-05-23T09:54:17.508Z,40
2023-05-23T09:55:24.377Z,30
2023-05-23T09:56:31.183Z,33
2023-05-23T09:57:38.017Z,35
2023-05-23T09:58:44.984Z,33
2023-05-23T09:59:51.838Z,32
2023-05-23T10:00:58.712Z,25
2023-05-23T10:02:08.577Z,44
2023-05-23T10:03:15.543Z,38
2023-05-23T10:04:22.348Z,25
2023-05-23T10:05:29.165Z,45
2023-05-23T10:06:38.586Z,40
2023-05-23T10:07:45.364Z,37
2023-05-23T10:08:52.204Z,25
2023-05-23T10:10:04.169Z,38
2023-05-23T10:11:11.116Z,30
2023-05-23T10:12:17.884Z,42
2023-05-23T10:13:35.159Z,61
2023-05-23T10:14:42.011Z,77
2023-05-23T10:15:48.943Z,67
2023-05-23T10:16:55.805Z,49
2023-05-23T10:18:02.787Z,58
2023-05-23T10:19:09.717Z,43
2023-05-23T10:20:26.829Z,25
2023-05-23T10:21:33.700Z,37
2023-05-23T10:22:40.481Z,44
2023-05-23T10:23:47.315Z,52
2023-05-23T10:24:54.066Z,43
2023-05-23T10:26:00.927Z,73
2023-05-23T10:27:07.708Z,63
2023-05-23T10:28:14.501Z,42
2023-05-23T10:29:21.362Z,36
2023-05-23T10:30:28.227Z,33
2023-05-23T10:32:05.043Z,46
2023-05-23T10:33:11.850Z,56
2023-05-23T10:34:18.833Z,27
2023-05-23T10:35:25.596Z,40
2023-05-23T10:36:37.734Z,31
2023-05-23T10:37:44.417Z,25
2023-05-23T10:38:56.576Z,33
2023-05-23T10:40:06.215Z,64
2023-05-23T10:41:21.073Z,64
2023-05-23T10:42:47.993Z,69
2023-05-23T10:44:03.169Z,67
2023-05-23T10:45:15.355Z,47
2023-05-23T10:46:22.536Z,53
2023-05-23T10:47:29.186Z,62
2023-05-23T10:48:35.932Z,64
2023-05-23T10:49:45.602Z,69
2023-05-23T10:51:25.165Z,60
2023-05-23T10:52:31.973Z,60
2023-05-23T10:53:38.860Z,51
2023-05-23T10:54:45.714Z,61
2023-05-23T10:55:55.353Z,63
2023-05-23T10:57:02.179Z,62
2023-05-23T10:58:09.222Z,55
2023-05-23T10:59:18.950Z,63
2023-05-23T11:00:25.766Z,63
2023-05-23T11:01:32.639Z,54
2023-05-23T11:02:39.437Z,65
2023-05-23T11:03:56.819Z,53
2023-05-23T11:05:03.390Z,60
2023-05-23T11:06:20.547Z,42
2023-05-23T11:07:32.658Z,51
2023-05-23T11:08:47.526Z,53
2023-05-23T11:09:46.386Z,58
2023-05-23T11:11:03.705Z,42
2023-05-23T11:12:10.532Z,43
2023-05-23T11:13:17.337Z,43
2023-05-23T11:14:24.141Z,49
2023-05-23T11:15:36.099Z,53
2023-05-23T11:16:45.608Z,41
2023-05-23T11:17:52.407Z,42
2023-05-23T11:18:59.539Z,47
2023-05-23T11:20:16.777Z,47
2023-05-23T11:21:28.734Z,53
2023-05-23T11:22:35.672Z,49
2023-05-23T11:23:42.478Z,64
2023-05-23T11:24:49.250Z,55
2023-05-23T11:25:59.103Z,59
2023-05-23T11:27:06.030Z,62
2023-05-23T11:28:12.874Z,66
2023-05-23T11:29:20.263Z,62
2023-05-23T11:30:27.175Z,73
2023-05-23T11:31:34.322Z,72
2023-05-23T11:32:41.316Z,68
2023-05-23T11:33:53.362Z,92
2023-05-23T11:35:00.153Z,85
2023-05-23T11:36:06.960Z,89
2023-05-23T11:37:13.770Z,103
2023-05-23T11:38:20.537Z,104
2023-05-23T11:39:27.678Z,98
2023-05-23T11:40:34.557Z,99
2023-05-23T11:41:41.431Z,104
2023-05-23T11:42:48.232Z,106
2023-05-23T11:43:55.067Z,111
2023-05-23T11:45:01.969Z,118
2023-05-23T11:46:09.211Z,123
2023-05-23T11:47:16.005Z,118
2023-05-23T11:48:22.912Z,122
2023-05-23T11:49:31.761Z,119
2023-05-23T11:50:38.930Z,119
2023-05-23T11:51:53.664Z,120
2023-05-23T11:53:00.506Z,128
2023-05-23T11:54:07.304Z,134
2023-05-23T11:55:14.266Z,132
2023-05-23T11:56:21.028Z,126
2023-05-23T11:57:27.841Z,138
2023-05-23T11:58:34.718Z,142
2023-05-23T11:59:41.748Z,142
2023-05-23T12:00:48.464Z,156
2023-05-23T12:01:55.271Z,153
2023-05-23T12:03:07.192Z,165
2023-05-23T12:04:14.111Z,176
2023-05-23T12:05:20.834Z,180
2023-05-23T12:06:27.665Z,199
2023-05-23T12:07:34.489Z,197
2023-05-23T12:08:49.521Z,213
2023-05-23T12:09:56.645Z,230
2023-05-23T12:11:03.480Z,233
2023-05-23T12:12:10.238Z,235
2023-05-23T12:13:17.072Z,235
2023-05-23T12:14:55.817Z,246
2023-05-23T12:16:03.182Z,245
2023-05-23T12:17:10.042Z,248
2023-05-23T12:18:16.875Z,241
2023-05-23T12:19:23.792Z,234
2023-05-23T12:20:30.471Z,223
2023-05-23T12:21:37.436Z,215
2023-05-23T12:22:47.449Z,214
2023-05-23T12:23:54.320Z,209
2023-05-23T12:25:01.133Z,207
2023-05-23T12:26:08.388Z,201
2023-05-23T12:27:15.012Z,203
2023-05-23T12:28:22.005Z,199
2023-05-23T12:29:39.237Z,200
2023-05-23T12:30:46.105Z,206
2023-05-23T12:31:53.039Z,204
2023-05-23T12:32:59.782Z,205
2023-05-23T12:34:06.566Z,209
2023-05-23T12:35:13.461Z,213
2023-05-23T12:36:20.192Z,197
2023-05-23T12:37:29.799Z,183
2023-05-23T12:38:36.694Z,173
2023-05-23T12:39:43.655Z,173
2023-05-23T12:40:50.439Z,168
2023-05-23T12:42:07.723Z,178
2023-05-23T12:43:14.659Z,148
2023-05-23T12:44:21.426Z,146
2023-05-23T12:45:28.175Z,149
2023-05-23T12:46:46.059Z,136
2023-05-23T12:47:54.259Z,132
2023-05-23T12:48:59.632Z,141
2023-05-23T12:50:06.454Z,132
2023-05-23T12:51:13.412Z,129
2023-05-23T12:52:20.253Z,125
2023-05-23T12:53:27.145Z,114
2023-05-23T12:54:33.874Z,122
2023-05-23T12:55:41.000Z,125
2023-05-23T12:56:47.739Z,112
2023-05-23T12:57:54.674Z,110
2023-05-23T12:59:01.433Z,104
2023-05-23T13:00:30.795Z,96
2023-05-23T13:01:37.703Z,100
2023-05-23T13:02:44.614Z,109
2023-05-23T13:03:51.619Z,113
2023-05-23T13:04:58.315Z,100
2023-05-23T13:06:05.259Z,98
2023-05-23T13:07:12.194Z,95
2023-05-23T13:08:19.066Z,91
2023-05-23T13:09:25.989Z,87
2023-05-23T13:10:32.776Z,90
2023-05-23T13:11:39.729Z,85
2023-05-23T13:12:46.548Z,92
2023-05-23T13:13:53.431Z,102
2023-05-23T13:15:00.296Z,98
2023-05-23T13:16:07.412Z,91
2023-05-23T13:17:14.448Z,94
2023-05-23T13:18:21.303Z,93
2023-05-23T13:19:28.280Z,90
2023-05-23T13:20:35.198Z,91
2023-05-23T13:21:42.254Z,84
2023-05-23T13:22:56.982Z,86
2023-05-23T13:24:04.025Z,94
2023-05-23T13:25:11.036Z,83
2023-05-23T13:26:17.972Z,88
2023-05-23T13:27:24.820Z,88
2023-05-23T13:28:31.800Z,86
2023-05-23T13:29:38.732Z,92
2023-05-23T13:30:47.131Z,87
2023-05-23T13:31:52.699Z,86
2023-05-23T13:32:59.954Z,110
2023-05-23T13:34:06.793Z,91
2023-05-23T13:35:13.595Z,91
2023-05-23T13:36:20.829Z,85
2023-05-23T13:37:27.724Z,85
2023-05-23T13:38:34.560Z,85
2023-05-23T13:39:41.339Z,90
2023-05-23T13:40:49.761Z,91
2023-05-23T13:41:55.138Z,93
2023-05-23T13:43:02.122Z,96
2023-05-23T13:44:08.958Z,90
2023-05-23T13:45:15.812Z,84
2023-05-23T13:46:22.685Z,83
2023-05-23T13:47:29.501Z,85
2023-05-23T13:48:36.390Z,85
2023-05-23T13:49:43.210Z,79
2023-05-23T13:50:50.089Z,84
2023-05-23T13:51:56.943Z,81
2023-05-23T13:53:03.807Z,82
2023-05-23T13:54:10.549Z,83
2023-05-23T13:55:17.356Z,83
2023-05-23T13:56:24.315Z,82
2023-05-23T13:57:31.140Z,85
2023-05-23T13:58:37.978Z,87
2023-05-23T13:59:44.798Z,86
2023-05-23T14:00:52.080Z,85
2023-05-23T14:01:58.927Z,85
2023-05-23T14:03:05.857Z,85
2023-05-23T14:04:12.658Z,81
2023-05-23T14:05:19.465Z,85
2023-05-23T14:06:26.248Z,81
2023-05-23T14:07:33.266Z,85
2023-05-23T14:08:40.062Z,83
2023-05-23T14:09:46.884Z,90
2023-05-23T14:10:53.766Z,85
2023-05-23T14:12:00.606Z,86
2023-05-23T14:13:07.690Z,84
2023-05-23T14:14:14.731Z,96
2023-05-23T14:15:21.651Z,100
2023-05-23T14:16:28.563Z,91
2023-05-23T14:17:35.354Z,99
2023-05-23T14:18:42.417Z,98
2023-05-23T14:19:49.380Z,94
2023-05-23T14:20:56.219Z,100
2023-05-23T14:22:03.046Z,95
2023-05-23T14:23:09.961Z,97
2023-05-23T14:24:16.960Z,94
2023-05-23T14:25:23.888Z,96
2023-05-23T14:26:30.678Z,97
2023-05-23T14:27:37.527Z,100
2023-05-23T14:28:44.411Z,98
2023-05-23T14:29:51.413Z,99
2023-05-23T14:30:58.350Z,100
2023-05-23T14:32:05.257Z,101
2023-05-23T14:33:12.058Z,111
2023-05-23T14:34:18.891Z,109
2023-05-23T14:35:25.930Z,112
2023-05-23T14:36:32.821Z,121
2023-05-23T14:37:39.672Z,114
2023-05-23T14:38:46.542Z,116
2023-05-23T14:39:53.465Z,118
2023-05-23T14:41:00.388Z,117
2023-05-23T14:42:07.254Z,116
2023-05-23T14:43:14.153Z,118
2023-05-23T14:44:21.074Z,121
2023-05-23T14:45:32.856Z,121
2023-05-23T14:46:41.948Z,118
2023-05-23T14:47:48.888Z,123
2023-05-23T14:48:56.918Z,124
2023-05-23T14:50:03.812Z,123
2023-05-23T14:51:13.177Z,115
2023-05-23T14:52:18.059Z,114
2023-05-23T14:53:24.933Z,115
2023-05-23T14:54:31.730Z,122
2023-05-23T14:55:38.564Z,111
2023-05-23T14:56:45.328Z,123
2023-05-23T14:57:52.133Z,116
2023-05-23T14:58:59.013Z,120
2023-05-23T15:00:07.033Z,123
2023-05-23T15:01:14.747Z,124
2023-05-23T15:02:21.651Z,120
2023-05-23T15:03:29.256Z,121
2023-05-23T15:04:36.129Z,116
2023-05-23T15:05:44.552Z,116
2023-05-23T15:06:52.552Z,121
2023-05-23T15:08:02.624Z,115
2023-05-23T15:09:12.469Z,118
2023-05-23T15:10:24.347Z,113
2023-05-23T15:11:38.015Z,127
2023-05-23T15:12:50.844Z,118
2023-05-23T15:14:07.408Z,117
2023-05-23T15:15:18.642Z,123
2023-05-23T15:16:28.991Z,121
2023-05-23T15:17:39.273Z,115
2023-05-23T15:18:49.537Z,111
2023-05-23T15:19:59.172Z,113
2023-05-23T15:21:06.485Z,113
2023-05-23T15:22:18.952Z,112
2023-05-23T15:23:20.179Z,108
2023-05-23T15:24:29.996Z,116
2023-05-23T15:25:47.592Z,117
2023-05-23T15:26:44.492Z,117
2023-05-23T15:27:51.247Z,118
2023-05-23T15:29:06.976Z,117
2023-05-23T15:30:19.887Z,118
2023-05-23T15:31:29.270Z,116
2023-05-23T15:32:38.998Z,119
2023-05-23T15:33:49.121Z,121
2023-05-23T15:34:55.986Z,118
2023-05-23T15:36:02.954Z,125
2023-05-23T15:37:09.992Z,125
2023-05-23T15:38:19.217Z,120
2023-05-23T15:39:24.071Z,117
2023-05-23T15:40:30.903Z,115
2023-05-23T15:41:37.825Z,118
2023-05-23T15:42:44.718Z,119
2023-05-23T15:43:51.508Z,123
2023-05-23T15:44:58.314Z,123
2023-05-23T15:46:05.237Z,125
2023-05-23T15:47:12.108Z,125
2023-05-23T15:48:18.956Z,121
2023-05-23T15:49:27.118Z,118
2023-05-23T15:50:36.296Z,119
2023-05-23T15:51:46.039Z,126
2023-05-23T15:52:52.967Z,118
2023-05-23T15:54:01.242Z,122
2023-05-23T15:55:09.940Z,120
2023-05-23T15:56:22.482Z,121
2023-05-23T15:57:32.083Z,124
2023-05-23T15:58:38.883Z,121
2023-05-23T15:59:48.878Z,124
2023-05-23T16:00:58.728Z,128
2023-05-23T16:02:10.568Z,121
2023-05-23T16:03:20.384Z,141
2023-05-23T16:04:30.158Z,125
2023-05-23T16:05:39.945Z,138
2023-05-23T16:06:49.702Z,141
2023-05-23T16:07:56.481Z,126
2023-05-23T16:09:03.538Z,129
2023-05-23T16:10:10.587Z,116